Time;durP1;ratioP1;P1;durP2;ratioP2;P2;SDS_P1;SDS_P2;PMS_P1;PMS_P2;Temp;Humidity;BMP_temperature;BMP_pressure;BME280_temperature;BME280_humidity;BME280_pressure;Samples;Min_cycle;Max_cycle;Signal;HPM_P1;HPM_P2
2023/05/13 00:00:37;;;;;;;4.50;2.40;;;11.10;99.90;;;;;;5074590;28;20501;-71
2023/05/13 00:03:03;;;;;;;3.17;2.22;;;11.00;99.90;;;;;;5074186;28;20105;-71
2023/05/13 00:05:29;;;;;;;4.18;2.05;;;10.90;99.90;;;;;;5091041;28;20506;-70
2023/05/13 00:07:55;;;;;;;3.00;2.00;;;10.80;99.90;;;;;;5074551;28;20046;-70
2023/05/13 00:10:21;;;;;;;3.90;1.67;;;10.80;99.90;;;;;;5090743;28;20032;-71
2023/05/13 00:12:46;;;;;;;3.67;1.77;;;10.70;99.90;;;;;;5092592;28;20433;-70
2023/05/13 00:15:13;;;;;;;3.60;2.40;;;10.70;99.90;;;;;;5091453;28;20094;-71
2023/05/13 00:17:38;;;;;;;3.13;2.00;;;10.70;99.90;;;;;;5091799;28;20028;-70
2023/05/13 00:20:05;;;;;;;4.60;2.08;;;10.70;99.90;;;;;;5090932;28;20526;-70
2023/05/13 00:22:31;;;;;;;4.88;2.40;;;10.70;99.90;;;;;;5074393;28;20436;-70
2023/05/13 00:24:57;;;;;;;4.50;1.83;;;10.70;99.90;;;;;;5090423;28;20373;-70
2023/05/13 00:27:23;;;;;;;2.35;1.73;;;10.60;99.90;;;;;;5074297;28;20097;-70
2023/05/13 00:29:49;;;;;;;3.63;2.25;;;10.60;99.90;;;;;;5091500;28;20112;-70
2023/05/13 00:32:14;;;;;;;3.63;2.20;;;10.60;99.90;;;;;;5073058;28;20048;-71
2023/05/13 00:34:40;;;;;;;4.47;2.45;;;10.60;99.90;;;;;;5091923;28;20043;-71
2023/05/13 00:37:08;;;;;;;3.67;1.98;;;10.60;99.90;;;;;;5090348;28;20071;-70
2023/05/13 00:39:34;;;;;;;2.88;1.73;;;10.60;99.90;;;;;;5090726;28;20040;-70
2023/05/13 00:42:03;;;;;;;4.07;1.63;;;10.60;99.90;;;;;;5092093;28;20092;-71
2023/05/13 00:44:29;;;;;;;4.90;2.33;;;10.50;99.90;;;;;;5089984;28;20083;-70
2023/05/13 00:46:55;;;;;;;5.65;2.55;;;10.50;99.90;;;;;;5091615;28;20075;-70
2023/05/13 00:49:21;;;;;;;3.97;2.35;;;10.40;99.90;;;;;;5090289;28;20373;-71
2023/05/13 00:51:47;;;;;;;4.30;2.13;;;10.30;99.90;;;;;;5091096;28;20051;-70
2023/05/13 00:54:13;;;;;;;4.03;1.85;;;10.30;99.90;;;;;;5091551;28;20044;-70
2023/05/13 00:56:39;;;;;;;4.63;1.95;;;10.30;99.90;;;;;;5090840;28;20040;-71
2023/05/13 00:59:05;;;;;;;5.88;3.03;;;10.30;99.90;;;;;;5091068;28;20073;-70
2023/05/13 01:01:37;;;;;;;4.07;2.50;;;10.30;99.90;;;;;;5091551;28;20119;-71
2023/05/13 01:04:28;;;;;;;4.63;2.38;;;10.30;99.90;;;;;;5091958;28;20042;-71
2023/05/13 01:07:14;;;;;;;3.33;2.13;;;10.30;99.90;;;;;;5089810;28;20051;-71
2023/05/13 01:09:49;;;;;;;5.25;3.05;;;10.20;99.90;;;;;;5076964;28;20048;-70
2023/05/13 01:12:29;;;;;;;6.22;2.40;;;10.20;99.90;;;;;;5090767;28;20046;-70
2023/05/13 01:15:16;;;;;;;3.35;1.83;;;10.10;99.90;;;;;;5089997;28;20036;-70
2023/05/13 01:17:49;;;;;;;5.18;3.08;;;10.20;99.90;;;;;;5090922;28;20044;-70
2023/05/13 01:20:20;;;;;;;4.43;1.85;;;10.10;99.90;;;;;;5089006;28;20040;-70
2023/05/13 01:22:46;;;;;;;4.05;2.60;;;10.10;99.90;;;;;;5091192;28;20038;-70
2023/05/13 01:25:11;;;;;;;4.35;2.83;;;10.10;99.90;;;;;;5089976;28;20039;-70
2023/05/13 01:27:38;;;;;;;4.38;2.08;;;10.00;99.90;;;;;;5089025;28;20050;-70
2023/05/13 01:30:05;;;;;;;5.55;2.53;;;10.00;99.90;;;;;;5089611;28;20422;-70
2023/05/13 01:32:32;;;;;;;3.97;2.20;;;10.00;99.90;;;;;;5072766;28;20051;-70
2023/05/13 01:34:59;;;;;;;5.63;2.30;;;10.00;99.90;;;;;;5072822;28;20059;-70
2023/05/13 01:37:26;;;;;;;4.15;2.33;;;10.00;99.90;;;;;;5089633;28;20072;-70
2023/05/13 01:39:52;;;;;;;4.10;2.75;;;10.00;99.90;;;;;;5088887;28;20039;-70
2023/05/13 01:42:18;;;;;;;4.88;2.33;;;10.00;99.90;;;;;;5090718;28;20484;-70
2023/05/13 01:44:44;;;;;;;4.07;2.67;;;10.00;99.90;;;;;;5088480;28;20051;-70
2023/05/13 01:47:10;;;;;;;6.13;3.15;;;10.00;99.90;;;;;;5090151;28;20488;-70
2023/05/13 01:49:35;;;;;;;5.57;2.72;;;10.00;99.90;;;;;;5089031;28;20462;-70
2023/05/13 01:52:03;;;;;;;6.28;2.40;;;10.00;99.90;;;;;;5090552;28;20059;-70
2023/05/13 01:54:29;;;;;;;5.90;2.92;;;10.10;99.90;;;;;;5088843;28;20496;-70
2023/05/13 01:56:55;;;;;;;5.18;2.72;;;10.00;99.90;;;;;;5090611;28;20032;-71
2023/05/13 01:59:21;;;;;;;4.07;2.03;;;10.10;99.90;;;;;;5089165;28;20032;-70
2023/05/13 02:01:46;;;;;;;5.40;3.10;;;10.10;99.90;;;;;;5088529;28;20044;-70
2023/05/13 02:04:12;;;;;;;4.78;2.53;;;10.10;99.90;;;;;;5088939;28;20048;-70
2023/05/13 02:06:38;;;;;;;3.97;2.08;;;10.10;99.90;;;;;;5088984;28;20043;-70
2023/05/13 02:09:04;;;;;;;4.40;2.58;;;10.10;99.90;;;;;;5088733;28;20044;-70
2023/05/13 02:11:29;;;;;;;5.40;2.55;;;10.10;99.90;;;;;;5072048;28;20477;-71
2023/05/13 02:13:55;;;;;;;3.90;2.60;;;10.10;99.90;;;;;;5072394;28;20040;-70
2023/05/13 02:16:21;;;;;;;6.50;3.00;;;10.10;99.90;;;;;;5088378;28;20472;-71
2023/05/13 02:18:47;;;;;;;6.40;3.25;;;10.10;99.90;;;;;;5089221;28;20040;-70
2023/05/13 02:21:13;;;;;;;4.05;2.55;;;10.10;99.90;;;;;;5071943;28;20447;-70
2023/05/13 02:23:38;;;;;;;3.58;2.15;;;10.00;99.90;;;;;;5088224;28;20063;-70
2023/05/13 02:26:04;;;;;;;4.07;2.70;;;10.10;99.90;;;;;;5072196;28;20048;-70
2023/05/13 02:28:30;;;;;;;5.95;3.13;;;10.00;99.90;;;;;;5089063;28;20036;-70
2023/05/13 02:30:56;;;;;;;4.93;2.72;;;10.00;99.90;;;;;;5071190;28;20679;-70
2023/05/13 02:33:22;;;;;;;5.00;2.88;;;10.00;99.90;;;;;;5088687;28;20043;-70
2023/05/13 02:35:48;;;;;;;5.47;2.90;;;10.00;99.90;;;;;;5088198;28;20047;-70
2023/05/13 02:38:14;;;;;;;4.43;2.60;;;10.00;99.90;;;;;;5088887;28;20790;-70
2023/05/13 02:40:39;;;;;;;5.22;3.55;;;10.00;99.90;;;;;;5088768;28;20047;-70
2023/05/13 02:43:05;;;;;;;6.00;2.90;;;9.90;99.90;;;;;;5089525;28;20451;-70
2023/05/13 02:45:32;;;;;;;4.97;2.78;;;9.90;99.90;;;;;;5089818;28;20097;-70
2023/05/13 02:47:58;;;;;;;8.75;2.90;;;10.00;99.90;;;;;;5088503;28;20056;-70
2023/05/13 02:50:24;;;;;;;4.13;2.70;;;10.00;99.90;;;;;;5088033;28;20093;-70
2023/05/13 02:52:50;;;;;;;5.60;3.40;;;10.00;99.90;;;;;;5088494;28;20126;-70
2023/05/13 02:55:15;;;;;;;8.57;3.33;;;9.90;99.90;;;;;;5089553;28;20036;-70
2023/05/13 02:57:42;;;;;;;4.45;2.67;;;10.00;99.90;;;;;;5075059;28;20403;-70
2023/05/13 03:00:09;;;;;;;6.55;2.85;;;9.90;99.90;;;;;;5092468;28;20032;-70
2023/05/13 03:02:36;;;;;;;7.65;3.70;;;10.00;99.90;;;;;;5093609;28;20044;-70
2023/05/13 03:05:03;;;;;;;7.30;3.10;;;9.90;99.90;;;;;;5075110;28;20366;-70
2023/05/13 03:07:29;;;;;;;5.65;3.00;;;9.90;99.90;;;;;;5075626;28;20594;-70
2023/05/13 03:09:55;;;;;;;4.88;3.10;;;9.90;99.90;;;;;;5093393;28;20040;-70
2023/05/13 03:12:20;;;;;;;6.25;3.17;;;9.90;99.90;;;;;;5074537;28;20046;-70
2023/05/13 03:14:46;;;;;;;4.57;2.63;;;9.90;99.90;;;;;;5075412;28;20040;-70
2023/05/13 03:17:12;;;;;;;5.32;3.13;;;9.90;99.90;;;;;;5093597;28;20463;-70
2023/05/13 03:19:38;;;;;;;7.13;3.90;;;9.90;99.90;;;;;;5091644;28;20538;-70
2023/05/13 03:22:05;;;;;;;4.95;2.42;;;9.90;99.90;;;;;;5093689;28;20384;-70
2023/05/13 03:24:31;;;;;;;4.10;2.25;;;9.90;99.90;;;;;;5093473;28;20114;-70
2023/05/13 03:26:57;;;;;;;5.43;2.92;;;9.90;99.90;;;;;;5091401;28;20373;-69
2023/05/13 03:29:24;;;;;;;8.50;3.30;;;9.80;99.90;;;;;;5093349;28;20079;-69
2023/05/13 03:31:50;;;;;;;5.32;2.90;;;9.80;99.90;;;;;;5074371;28;20598;-69
2023/05/13 03:34:15;;;;;;;4.38;2.45;;;9.80;99.90;;;;;;5093043;28;20036;-69
2023/05/13 03:36:41;;;;;;;5.72;2.90;;;9.80;99.90;;;;;;5091600;28;20123;-69
2023/05/13 03:39:07;;;;;;;3.92;2.33;;;9.80;99.90;;;;;;5092448;28;20058;-70
2023/05/13 03:41:33;;;;;;;8.07;3.67;;;9.80;99.90;;;;;;5091657;28;20048;-69
2023/05/13 03:43:59;;;;;;;6.05;3.05;;;9.90;99.90;;;;;;5093240;28;20040;-70
2023/05/13 03:46:26;;;;;;;4.53;3.15;;;9.90;99.90;;;;;;5090916;28;20676;-69
2023/05/13 03:48:54;;;;;;;5.57;3.05;;;9.90;99.90;;;;;;5104278;28;20119;-69
2023/05/13 03:51:21;;;;;;;4.53;2.72;;;9.90;99.90;;;;;;5094922;28;20082;-70
2023/05/13 03:53:46;;;;;;;5.07;2.67;;;9.90;99.90;;;;;;5077725;28;20570;-69
2023/05/13 03:56:13;;;;;;;3.40;2.35;;;9.90;99.90;;;;;;5095021;28;20070;-69
2023/05/13 03:58:39;;;;;;;5.30;3.17;;;9.90;99.90;;;;;;5094588;28;20044;-69
2023/05/13 04:01:06;;;;;;;4.57;2.50;;;9.90;99.90;;;;;;5077054;28;20055;-69
2023/05/13 04:03:33;;;;;;;4.57;2.65;;;9.90;99.90;;;;;;5094678;28;20044;-69
2023/05/13 04:05:59;;;;;;;4.78;2.63;;;9.90;99.90;;;;;;5077718;28;20040;-69
2023/05/13 04:08:26;;;;;;;4.07;2.60;;;9.90;99.90;;;;;;5110882;28;20046;-69
2023/05/13 04:10:52;;;;;;;3.47;2.38;;;9.90;99.90;;;;;;5112770;28;20040;-69
2023/05/13 04:13:18;;;;;;;6.72;3.15;;;9.90;99.90;;;;;;5094256;28;20028;-69
2023/05/13 04:15:44;;;;;;;4.03;2.63;;;10.00;99.90;;;;;;5111829;28;20173;-70
2023/05/13 04:18:10;;;;;;;4.55;2.63;;;10.00;99.90;;;;;;5112707;28;20040;-69
2023/05/13 04:20:39;;;;;;;4.03;2.38;;;10.10;99.90;;;;;;5093573;28;20046;-69
2023/05/13 04:23:05;;;;;;;4.70;3.13;;;10.10;99.90;;;;;;5094468;28;20152;-69
2023/05/13 04:25:31;;;;;;;4.72;2.78;;;10.10;99.90;;;;;;5094300;28;20039;-69
2023/05/13 04:27:57;;;;;;;4.90;3.03;;;10.20;99.90;;;;;;5093515;28;20046;-69
2023/05/13 04:30:23;;;;;;;5.15;2.35;;;10.30;99.90;;;;;;5112435;28;20077;-70
2023/05/13 04:32:48;;;;;;;8.43;3.10;;;10.30;99.90;;;;;;5093879;28;20032;-70
2023/05/13 04:35:14;;;;;;;5.10;2.45;;;10.30;99.90;;;;;;5093718;28;20031;-70
2023/05/13 04:37:40;;;;;;;4.60;2.13;;;10.40;99.90;;;;;;5112120;28;20450;-69
2023/05/13 04:40:07;;;;;;;6.30;2.58;;;10.40;99.90;;;;;;5093799;28;20044;-70
2023/05/13 04:42:33;;;;;;;5.97;3.17;;;10.50;99.90;;;;;;5093255;28;20152;-70
2023/05/13 04:44:59;;;;;;;5.65;2.65;;;10.50;99.90;;;;;;5077331;28;20039;-70
2023/05/13 04:47:25;;;;;;;4.57;2.45;;;10.60;99.90;;;;;;5093914;28;20402;-70
2023/05/13 04:49:50;;;;;;;3.30;2.50;;;10.60;99.90;;;;;;5093052;28;20052;-70
2023/05/13 04:52:16;;;;;;;3.88;2.42;;;10.60;99.90;;;;;;5076801;28;20466;-69
2023/05/13 04:54:42;;;;;;;3.63;2.58;;;10.70;99.90;;;;;;5077007;28;20036;-70
2023/05/13 04:57:08;;;;;;;6.13;3.03;;;10.80;99.90;;;;;;5093526;28;20035;-69
2023/05/13 04:59:34;;;;;;;3.72;2.75;;;10.80;99.90;;;;;;5111877;28;20054;-70
2023/05/13 05:02:00;;;;;;;4.50;2.53;;;10.90;99.90;;;;;;5111890;28;20042;-70
2023/05/13 05:04:26;;;;;;;6.55;3.22;;;11.00;99.90;;;;;;5092971;28;20040;-70
2023/05/13 05:06:52;;;;;;;5.78;2.63;;;11.00;99.90;;;;;;5111664;28;20668;-70
2023/05/13 05:09:18;;;;;;;3.63;2.75;;;11.10;99.90;;;;;;5093510;28;20039;-69
2023/05/13 05:11:44;;;;;;;4.13;2.47;;;11.10;99.90;;;;;;5075751;28;20046;-69
2023/05/13 05:14:10;;;;;;;10.55;2.85;;;11.20;99.90;;;;;;5076183;28;20118;-70
2023/05/13 05:16:36;;;;;;;4.80;2.58;;;11.30;99.90;;;;;;5092819;28;20040;-70
2023/05/13 05:19:01;;;;;;;3.25;2.40;;;11.30;99.90;;;;;;5111164;28;20035;-70
2023/05/13 05:21:27;;;;;;;3.58;2.70;;;11.40;99.90;;;;;;5093416;28;20446;-70
2023/05/13 05:23:53;;;;;;;5.95;2.40;;;11.50;99.90;;;;;;5075671;28;20143;-69
2023/05/13 05:26:19;;;;;;;5.05;2.13;;;11.60;99.90;;;;;;5093387;28;20032;-70
2023/05/13 05:28:45;;;;;;;3.33;2.35;;;11.60;99.90;;;;;;5076470;28;20108;-70
2023/05/13 05:31:11;;;;;;;4.03;2.70;;;11.70;99.90;;;;;;5092182;28;20202;-70
2023/05/13 05:33:38;;;;;;;4.97;2.40;;;11.80;99.90;;;;;;5092975;28;20466;-70
2023/05/13 05:36:04;;;;;;;4.53;2.42;;;11.90;99.90;;;;;;5092903;28;20036;-70
2023/05/13 05:38:29;;;;;;;6.03;2.33;;;12.00;99.90;;;;;;5110345;28;20044;-71
2023/05/13 05:40:55;;;;;;;6.38;2.70;;;12.10;99.90;;;;;;5111025;28;20050;-70
2023/05/13 05:43:21;;;;;;;5.07;2.58;;;12.20;99.90;;;;;;5092863;28;20044;-70
2023/05/13 05:45:47;;;;;;;7.75;2.88;;;12.30;99.90;;;;;;5110026;28;20035;-70
2023/05/13 05:48:13;;;;;;;3.47;2.42;;;12.40;99.90;;;;;;5072130;28;20063;-71
2023/05/13 05:50:39;;;;;;;4.38;2.63;;;12.50;99.90;;;;;;5072322;28;20506;-71
2023/05/13 05:53:05;;;;;;;5.57;2.78;;;12.50;99.90;;;;;;5089607;28;20082;-71
2023/05/13 05:55:32;;;;;;;7.70;3.08;;;12.60;99.90;;;;;;5090239;28;20516;-70
2023/05/13 05:58:02;;;;;;;4.65;2.35;;;12.70;99.90;;;;;;5072234;28;20032;-70
2023/05/13 06:00:29;;;;;;;4.20;2.28;;;12.80;99.90;;;;;;5088499;28;20050;-70
2023/05/13 06:02:55;;;;;;;5.05;2.83;;;12.90;99.90;;;;;;5089264;28;20109;-71
2023/05/13 06:05:22;;;;;;;5.53;2.92;;;13.10;99.90;;;;;;5089074;28;20036;-70
2023/05/13 06:07:48;;;;;;;3.47;2.00;;;13.10;99.90;;;;;;5089646;28;20488;-70
2023/05/13 06:10:14;;;;;;;3.72;2.40;;;13.30;99.90;;;;;;5089164;28;20105;-71
2023/05/13 06:12:40;;;;;;;5.22;2.65;;;13.40;99.90;;;;;;5088612;28;20040;-70
2023/05/13 06:15:09;;;;;;;5.68;3.05;;;13.60;99.90;;;;;;5088881;28;20492;-72
2023/05/13 06:17:36;;;;;;;3.47;2.40;;;13.70;99.90;;;;;;5090169;28;20039;-70
2023/05/13 06:20:03;;;;;;;4.50;2.53;;;13.90;99.90;;;;;;5089573;28;20126;-71
2023/05/13 06:22:29;;;;;;;4.30;2.60;;;14.00;99.90;;;;;;5089035;28;20063;-71
2023/05/13 06:24:55;;;;;;;3.70;2.63;;;14.20;99.90;;;;;;5088607;28;20554;-71
2023/05/13 06:27:21;;;;;;;4.97;2.58;;;14.30;99.90;;;;;;5089229;28;20101;-71
2023/05/13 06:29:47;;;;;;;6.28;3.25;;;14.40;99.90;;;;;;5088624;28;20040;-70
2023/05/13 06:32:13;;;;;;;4.82;2.85;;;14.50;99.90;;;;;;5092984;28;20117;-71
2023/05/13 06:34:41;;;;;;;9.77;3.17;;;14.80;99.90;;;;;;5075307;28;20667;-72
2023/05/13 06:37:07;;;;;;;3.80;2.38;;;15.00;99.90;;;;;;5075998;28;20380;-72
2023/05/13 06:39:33;;;;;;;6.07;2.20;;;15.30;99.90;;;;;;5075833;28;20071;-72
2023/05/13 06:41:58;;;;;;;3.03;2.13;;;15.50;99.90;;;;;;5092285;28;20079;-71
2023/05/13 06:44:24;;;;;;;4.38;2.67;;;15.70;99.90;;;;;;5094031;28;20043;-71
2023/05/13 06:46:50;;;;;;;3.17;2.00;;;15.90;99.90;;;;;;5093772;28;20130;-72
2023/05/13 06:49:16;;;;;;;6.45;2.72;;;16.10;99.90;;;;;;5108003;28;20079;-72
2023/05/13 06:51:42;;;;;;;3.95;2.00;;;16.20;99.90;;;;;;5114170;28;20039;-73
2023/05/13 06:54:08;;;;;;;4.05;1.80;;;16.40;99.90;;;;;;5114364;28;20032;-72
2023/05/13 06:56:33;;;;;;;3.90;2.00;;;16.60;99.90;;;;;;5095156;28;20419;-72
2023/05/13 06:58:59;;;;;;;3.35;2.10;;;16.80;99.90;;;;;;5095622;28;20035;-72
2023/05/13 07:01:25;;;;;;;4.15;2.38;;;17.00;99.90;;;;;;5113706;28;20067;-70
2023/05/13 07:03:51;;;;;;;3.60;2.05;;;17.30;99.90;;;;;;5113587;28;20051;-73
2023/05/13 07:06:16;;;;;;;1.92;1.75;;;17.40;99.90;;;;;;5095575;28;20495;-72
2023/05/13 07:08:42;;;;;;;3.42;2.13;;;17.60;99.90;;;;;;5113381;28;20161;-73
2023/05/13 07:11:08;;;;;;;3.13;1.70;;;17.80;99.90;;;;;;5095362;28;20036;-72
2023/05/13 07:13:34;;;;;;;4.63;2.03;;;17.90;99.90;;;;;;5095409;28;20051;-73
2023/05/13 07:16:03;;;;;;;3.13;1.73;;;18.10;99.90;;;;;;5113406;28;20067;-72
2023/05/13 07:18:29;;;;;;;3.17;2.22;;;18.20;99.90;;;;;;5113811;28;20380;-73
2023/05/13 07:20:55;;;;;;;3.25;1.92;;;18.40;99.90;;;;;;5095231;28;20058;-72
2023/05/13 07:23:22;;;;;;;3.78;1.90;;;18.60;99.90;;;;;;5094914;28;20039;-72
2023/05/13 07:25:50;;;;;;;3.72;1.92;;;18.70;99.90;;;;;;5095103;28;20075;-73
2023/05/13 07:28:16;;;;;;;3.67;1.90;;;18.90;99.90;;;;;;5095059;28;20047;-72
2023/05/13 07:30:41;;;;;;;3.83;1.67;;;18.90;99.90;;;;;;5112784;28;20035;-73
2023/05/13 07:33:07;;;;;;;2.33;1.67;;;19.00;99.90;;;;;;5113545;28;20043;-72
2023/05/13 07:35:33;;;;;;;1.95;1.50;;;19.10;99.90;;;;;;5095808;28;20506;-71
2023/05/13 07:37:59;;;;;;;2.53;1.55;;;19.30;99.90;;;;;;5095596;28;20036;-72
2023/05/13 07:40:25;;;;;;;2.72;1.88;;;19.40;99.90;;;;;;5095001;28;20165;-67
2023/05/13 07:42:50;;;;;;;3.30;1.90;;;19.50;99.90;;;;;;5094888;28;20502;-72
2023/05/13 07:45:16;;;;;;;5.60;1.85;;;19.70;99.90;;;;;;5094599;28;20035;-72
2023/05/13 07:47:42;;;;;;;2.78;1.52;;;19.90;99.90;;;;;;5112725;28;20493;-72
2023/05/13 07:50:08;;;;;;;3.15;1.98;;;20.20;99.90;;;;;;5094740;28;20044;-72
2023/05/13 07:52:34;;;;;;;5.03;2.53;;;20.40;99.90;;;;;;5093898;28;20135;-71
2023/05/13 07:55:00;;;;;;;3.90;1.60;;;20.60;99.90;;;;;;5094777;28;20047;-72
2023/05/13 07:57:26;;;;;;;3.05;1.48;;;20.70;99.90;;;;;;5112826;28;20031;-72
2023/05/13 07:59:53;;;;;;;5.25;2.50;;;20.90;99.90;;;;;;5093533;28;20563;-72
2023/05/13 08:02:19;;;;;;;2.67;1.75;;;21.00;99.90;;;;;;5093672;28;20046;-71
2023/05/13 08:04:45;;;;;;;2.65;1.90;;;21.20;99.90;;;;;;5077857;28;20039;-72
2023/05/13 08:07:11;;;;;;;2.65;1.75;;;21.30;99.90;;;;;;5094668;28;20050;-72
2023/05/13 08:09:37;;;;;;;3.47;2.00;;;21.40;99.90;;;;;;5094336;28;20048;-72
2023/05/13 08:12:03;;;;;;;3.20;1.73;;;21.50;99.90;;;;;;5093602;28;20122;-72
2023/05/13 08:14:28;;;;;;;3.33;1.63;;;21.70;99.90;;;;;;5112684;28;20035;-72
2023/05/13 08:16:55;;;;;;;3.45;1.80;;;21.90;99.90;;;;;;5094602;28;20052;-72
2023/05/13 08:19:20;;;;;;;3.38;1.88;;;22.00;99.90;;;;;;5111972;28;20035;-72
2023/05/13 08:21:46;;;;;;;3.33;1.90;;;22.20;99.90;;;;;;5077114;28;20379;-72
2023/05/13 08:24:12;;;;;;;2.53;1.95;;;22.40;99.90;;;;;;5077274;28;20059;-72
2023/05/13 08:26:38;;;;;;;2.85;1.73;;;22.50;99.90;;;;;;5111807;28;20682;-71
2023/05/13 08:29:04;;;;;;;3.13;1.70;;;22.60;99.90;;;;;;5076987;28;20039;-71
2023/05/13 08:31:31;;;;;;;2.35;1.70;;;22.80;99.90;;;;;;5093739;28;20078;-72
2023/05/13 08:33:56;;;;;;;4.28;2.15;;;22.90;99.90;;;;;;5093485;28;20067;-71
2023/05/13 08:36:24;;;;;;;3.13;1.83;;;23.00;99.90;;;;;;5094017;28;20499;-72
2023/05/13 08:38:50;;;;;;;5.07;2.35;;;22.90;99.90;;;;;;5112114;28;20043;-72
2023/05/13 08:41:16;;;;;;;3.55;1.83;;;23.00;99.90;;;;;;5076460;28;20051;-71
2023/05/13 08:43:43;;;;;;;2.67;1.60;;;23.30;99.90;;;;;;5112228;28;20495;-71
2023/05/13 08:46:10;;;;;;;2.85;1.77;;;23.50;99.90;;;;;;5112074;28;20449;-72
2023/05/13 08:48:40;;;;;;;2.67;1.67;;;23.60;99.90;;;;;;5092785;28;20051;-72
2023/05/13 08:51:08;;;;;;;2.80;1.75;;;23.80;99.90;;;;;;5093581;28;20043;-71
2023/05/13 08:53:34;;;;;;;5.13;2.22;;;23.90;99.90;;;;;;5092969;28;20062;-67
2023/05/13 08:56:00;;;;;;;2.72;1.80;;;24.00;99.90;;;;;;5111545;28;20040;-66
2023/05/13 08:58:26;;;;;;;4.88;2.03;;;24.00;99.90;;;;;;5093194;28;20040;-66
2023/05/13 09:00:53;;;;;;;3.38;1.65;;;24.10;99.90;;;;;;5092846;28;20055;-66
2023/05/13 09:03:20;;;;;;;2.33;1.65;;;24.10;99.90;;;;;;5111652;28;20102;-66
2023/05/13 09:05:46;;;;;;;3.58;1.95;;;24.20;99.90;;;;;;5093268;28;20047;-66
2023/05/13 09:08:14;;;;;;;2.70;1.58;;;24.30;99.90;;;;;;5092621;28;20112;-66
2023/05/13 09:10:39;;;;;;;3.63;1.88;;;24.30;99.90;;;;;;5093181;28;20035;-67
2023/05/13 09:13:06;;;;;;;3.05;1.40;;;24.50;99.90;;;;;;5111634;28;20503;-66
2023/05/13 09:15:32;;;;;;;2.35;1.40;;;24.50;99.90;;;;;;5092791;28;20122;-66
2023/05/13 09:18:03;;;;;;;2.55;1.73;;;24.60;99.90;;;;;;5076186;28;20047;-66
2023/05/13 09:20:29;;;;;;;2.85;1.50;;;24.60;99.90;;;;;;5076414;28;20388;-67
2023/05/13 09:23:02;;;;;;;4.05;1.50;;;24.60;99.90;;;;;;5110730;28;20110;-66
2023/05/13 09:25:29;;;;;;;2.28;1.20;;;24.70;99.90;;;;;;5111532;28;20054;-67
2023/05/13 09:28:03;;;;;;;1.98;1.10;;;24.80;99.90;;;;;;5110856;28;20040;-66
2023/05/13 09:30:32;;;;;;;2.05;1.20;;;25.00;99.90;;;;;;5092435;28;20112;-66
2023/05/13 09:33:13;;;;;;;2.08;1.33;;;25.20;99.90;;;;;;5092763;28;20028;-65
2023/05/13 09:35:40;;;;;;;2.95;1.55;;;25.40;99.90;;;;;;5091430;28;20032;-66
2023/05/13 09:38:16;;;;;;;2.20;1.48;;;25.50;99.90;;;;;;5087158;28;20044;-65
2023/05/13 09:40:59;;;;;;;2.67;1.48;;;25.50;99.90;;;;;;5091426;28;20043;-66
2023/05/13 09:43:37;;;;;;;2.50;1.48;;;25.60;99.90;;;;;;5087670;28;20036;-66
2023/05/13 09:46:04;;;;;;;2.47;1.65;;;25.70;99.90;;;;;;5071264;28;20063;-66
2023/05/13 09:48:32;;;;;;;2.72;1.27;;;25.80;99.90;;;;;;5054322;28;20047;-67
2023/05/13 09:50:59;;;;;;;5.32;1.73;;;25.90;99.90;;;;;;5070606;28;20080;-66
2023/05/13 09:53:26;;;;;;;2.25;1.67;;;26.00;99.90;;;;;;5070955;28;20048;-66
2023/05/13 09:55:55;;;;;;;2.08;1.20;;;26.10;99.90;;;;;;5079054;28;20036;-66
2023/05/13 09:58:23;;;;;;;1.80;1.15;;;26.10;99.90;;;;;;5053955;28;20101;-66
2023/05/13 10:00:50;;;;;;;2.22;1.08;;;26.30;99.90;;;;;;5089339;28;20052;-67
2023/05/13 10:03:16;;;;;;;2.75;1.20;;;26.50;99.90;;;;;;5071105;28;20546;-65
2023/05/13 10:05:42;;;;;;;2.33;1.30;;;26.40;99.90;;;;;;5069687;28;20052;-65
2023/05/13 10:08:10;;;;;;;2.20;1.17;;;26.20;99.90;;;;;;5071104;28;20040;-66
2023/05/13 10:10:37;;;;;;;7.40;1.57;;;26.20;99.90;;;;;;5070232;28;20143;-65
2023/05/13 10:13:05;;;;;;;2.45;1.60;;;26.30;99.90;;;;;;5070827;28;20028;-66
2023/05/13 10:15:33;;;;;;;2.75;1.35;;;26.40;99.90;;;;;;5054018;28;20036;-66
2023/05/13 10:17:59;;;;;;;2.92;1.30;;;26.40;99.90;;;;;;5088188;28;20035;-65
2023/05/13 10:20:25;;;;;;;1.70;1.10;;;26.50;99.90;;;;;;5071171;28;20093;-66
2023/05/13 10:22:51;;;;;;;3.00;1.55;;;26.60;99.90;;;;;;5054077;28;20140;-65
2023/05/13 10:25:18;;;;;;;2.78;1.35;;;26.60;99.80;;;;;;5088567;28;20183;-66
2023/05/13 10:27:44;;;;;;;2.70;1.25;;;26.60;99.60;;;;;;5089938;28;20047;-66
2023/05/13 10:30:10;;;;;;;2.25;1.30;;;26.60;98.70;;;;;;5071990;28;20449;-66
2023/05/13 10:32:40;;;;;;;3.30;1.60;;;26.60;98.90;;;;;;5088313;28;20040;-66
2023/05/13 10:35:09;;;;;;;2.53;1.10;;;26.60;98.00;;;;;;5108924;28;20525;-67
2023/05/13 10:37:49;;;;;;;3.55;1.23;;;26.80;98.10;;;;;;5091005;28;20043;-66
2023/05/13 10:40:41;;;;;;;2.72;1.20;;;26.90;97.60;;;;;;5090462;28;20398;-66
2023/05/13 10:43:15;;;;;;;2.55;1.20;;;26.90;96.90;;;;;;5108854;28;20082;-66
2023/05/13 10:45:56;;;;;;;3.95;1.38;;;26.80;94.90;;;;;;5108588;28;20446;-66
2023/05/13 10:48:22;;;;;;;3.58;1.30;;;26.80;94.70;;;;;;5108591;28;20060;-66
2023/05/13 10:50:59;;;;;;;1.58;0.80;;;26.80;96.30;;;;;;5074135;28;20036;-66
2023/05/13 10:53:30;;;;;;;2.08;1.08;;;26.80;96.00;;;;;;5090080;28;20549;-66
2023/05/13 10:55:59;;;;;;;1.60;1.20;;;26.90;95.70;;;;;;5090651;28;20078;-66
2023/05/13 10:58:28;;;;;;;;;;;26.90;95.60;;;;;;5109161;28;20039;-65
2023/05/13 11:01:18;;;;;;;3.08;1.40;;;27.10;94.10;;;;;;5108571;28;20340;-66
2023/05/13 11:03:55;;;;;;;4.43;1.38;;;27.20;94.80;;;;;;5104097;28;20606;-66
2023/05/13 11:06:42;;;;;;;2.05;1.00;;;27.20;94.10;;;;;;5070322;28;20140;-67
2023/05/13 11:09:38;;;;;;;2.28;1.10;;;27.20;95.20;;;;;;5069865;28;20079;-66
2023/05/13 11:12:04;;;;;;;2.60;1.30;;;27.10;94.90;;;;;;5067974;28;20066;-66
2023/05/13 11:14:30;;;;;;;2.20;1.15;;;27.20;95.20;;;;;;5053185;28;20048;-66
2023/05/13 11:17:03;;;;;;;1.75;1.15;;;26.80;93.60;;;;;;5090102;28;20036;-65
2023/05/13 11:19:36;;;;;;;2.03;1.10;;;26.60;94.20;;;;;;5092139;28;20043;-66
2023/05/13 11:22:09;;;;;;;1.67;1.15;;;26.60;94.30;;;;;;5056980;28;20040;-66
2023/05/13 11:24:35;;;;;;;1.80;0.77;;;26.70;95.10;;;;;;5057483;28;20036;-67
2023/05/13 11:27:21;;;;;;;2.75;0.88;;;26.90;95.40;;;;;;5111858;28;20506;-66
2023/05/13 11:29:55;;;;;;;4.13;1.20;;;26.80;92.50;;;;;;5076079;28;20040;-65
2023/05/13 11:32:53;;;;;;;1.58;0.90;;;26.80;94.10;;;;;;5090732;28;20043;-66
2023/05/13 11:35:24;;;;;;;1.65;0.90;;;26.80;93.40;;;;;;5073332;28;20036;-66
2023/05/13 11:37:50;;;;;;;3.35;1.35;;;26.80;94.30;;;;;;5057206;28;20092;-66
2023/05/13 11:40:23;;;;;;;2.67;1.40;;;26.90;94.40;;;;;;5092041;28;20395;-66
2023/05/13 11:42:50;;;;;;;2.42;1.48;;;27.00;94.00;;;;;;5096164;28;20103;-65
2023/05/13 11:45:21;;;;;;;2.33;1.40;;;27.10;94.50;;;;;;5076908;28;20061;-66
2023/05/13 11:47:47;;;;;;;2.25;1.10;;;27.20;94.60;;;;;;5093544;28;20075;-65
2023/05/13 11:50:21;;;;;;;1.92;0.80;;;27.10;94.20;;;;;;5093375;28;20078;-66
2023/05/13 11:53:00;;;;;;;3.03;1.05;;;26.80;93.10;;;;;;5093887;28;20043;-64
2023/05/13 11:55:28;;;;;;;3.00;1.30;;;26.50;93.40;;;;;;5112208;28;20035;-66
2023/05/13 11:57:54;;;;;;;4.93;1.93;;;26.40;93.50;;;;;;5075435;28;20036;-66
2023/05/13 12:00:28;;;;;;;3.40;1.63;;;26.00;93.10;;;;;;5056560;28;20109;-66
2023/05/13 12:02:55;;;;;;;2.45;1.40;;;25.40;92.70;;;;;;5074130;28;20040;-64
2023/05/13 12:05:21;;;;;;;1.70;1.23;;;25.10;93.90;;;;;;5073303;28;20036;-66
2023/05/13 12:07:48;;;;;;;4.32;1.33;;;25.00;93.60;;;;;;5056436;28;20949;-65
2023/05/13 12:10:14;;;;;;;1.83;1.20;;;24.90;92.90;;;;;;5072664;28;20040;-66
2023/05/13 12:12:42;;;;;;;3.58;1.42;;;25.10;92.90;;;;;;5072961;28;20173;-66
2023/05/13 12:15:10;;;;;;;2.58;1.45;;;25.20;93.40;;;;;;5091072;28;20512;-66
2023/05/13 12:17:36;;;;;;;;;;;25.40;92.60;;;;;;5073004;28;20036;-66
2023/05/13 12:20:10;;;;;;;2.47;1.13;;;25.50;90.10;;;;;;5083471;28;19915;-65
2023/05/13 12:22:43;;;;;;;3.25;1.08;;;25.60;91.90;;;;;;5076150;28;20044;-65
2023/05/13 12:25:30;;;;;;;1.85;0.90;;;25.60;92.50;;;;;;5110966;28;20173;-65
2023/05/13 12:27:57;;;;;;;2.13;1.27;;;25.60;90.90;;;;;;5092239;28;20126;-66
2023/05/13 12:30:23;;;;;;;2.60;1.15;;;25.70;91.20;;;;;;5111175;28;20047;-65
2023/05/13 12:32:49;;;;;;;2.03;1.27;;;25.70;91.90;;;;;;5110807;28;20036;-65
2023/05/13 12:35:14;;;;;;;2.38;1.58;;;25.80;91.90;;;;;;5111179;28;20460;-65
2023/05/13 12:37:40;;;;;;;2.20;1.40;;;25.70;91.90;;;;;;5091935;28;20042;-65
2023/05/13 12:40:13;;;;;;;3.53;1.38;;;25.60;90.70;;;;;;5109797;28;20035;-66
2023/05/13 12:42:44;;;;;;;4.53;1.60;;;25.20;90.40;;;;;;5090573;28;20040;-65
2023/05/13 12:45:10;;;;;;;2.40;1.45;;;25.00;90.90;;;;;;5092241;28;20124;-65
2023/05/13 12:47:51;;;;;;;1.88;1.30;;;25.00;92.10;;;;;;5110981;28;20507;-66
2023/05/13 12:50:18;;;;;;;5.70;2.00;;;25.00;91.90;;;;;;5111708;28;20050;-66